Jemez Springs, Valles Caldera, New Mexico Weather observations

Data are for 10 minute period ending at time listed.
 Day   Time   Solar   Ave.   Ave.  Ave.  Vector  Max.   Baro.   Total    
  of    of     Rad.   Air    Rel.  Wind   Wind   Wind  Press.  Precip.   
Year   Day            Temp.  Hum.  Speed  Dir.   Gust                    
2017   (MST)  Kw/m2    F      %     mph   deg.    mph    mb.     in.     
-------------------------------------------------------------------------
  18    3:30   0.00   30.4    80    6.8    14    10.2   808.7    0.00 
  18    3:40   0.00   30.8    80    6.5    12    11.9   808.7    0.00 
  18    3:50   0.00   31.5    77    6.7     7    10.2   808.7    0.00 
  18    4:00   0.00   31.9    76    7.0     7    10.8   808.7    0.00 
  18    4:10   0.00   31.8    77    6.3     4     9.6   808.7    0.00 
  18    4:20   0.00   31.6    78    5.7    11     9.6   808.7    0.00 
  18    4:30   0.00   31.6    79    5.4     1     8.4   808.7    0.00 
  18    4:40   0.00   31.9    79    3.6     3     6.0   808.7    0.00 
  18    4:50   0.00   32.1    79    3.6   346     6.0   808.5    0.00 
  18    5:00   0.00   32.4    77    5.4   358     9.0   808.5    0.00 
  18    5:10   0.00   32.4    77    5.8   354    10.2   808.5    0.00 
  18    5:20   0.00   32.6    76    6.2     6     9.6   808.5    0.00 
  18    5:30   0.00   32.6    77    4.6     5     7.8   808.5    0.00 
  18    5:40   0.00   32.5    77    4.1   347     7.8   808.5    0.00 
  18    5:50   0.00   32.5    78    5.0   346     8.4   808.5    0.00 
  18    6:00   0.00   32.4    79    5.9   354    10.2   808.5    0.00 
  18    6:10   0.00   32.4    80    5.2   353     9.6   808.5    0.00 
  18    6:20   0.00   32.5    80    5.1     8     9.0   808.5    0.00 
  18    6:30   0.00   32.4    81    3.8     6     7.2   808.5    0.00 
  18    6:40   0.00   31.9    82    4.1    25     9.0   808.5    0.00 
  18    6:50   0.00   31.9    82    4.0   358     7.8   808.5    0.00 
  18    7:00   0.00   31.5    82    3.0    30     6.0   808.4    0.00 
  18    7:10   0.00   30.9    84    3.7    20     6.6   808.4    0.00 
  18    7:20   0.00   30.8    84    3.6    20     6.6   808.4    0.00 
  18    7:30   0.01   30.2    85    2.0    42     3.6   808.3    0.00 
  18    7:40   0.01   30.1    87    3.3    30     6.6   808.2    0.00 
  18    7:50   0.02   30.0    87    2.7    25     4.8   808.1    0.00 
  18    8:00   0.04   29.9    87    2.4    38     3.6   808.2    0.00 
  18    8:10   0.04   30.2    87    1.8    36     4.2   808.2    0.00 
  18    8:20   0.05   30.5    86    2.4    31     4.2   808.1    0.00 
  18    8:30   0.04   30.7    85    2.1    27     4.8   808.0    0.00 
  18    8:40   0.05   30.9    85    1.5    54     3.6   808.0    0.00 
  18    8:50   0.24   33.1    83    1.7   192     3.0   808.0    0.00 
  18    9:00   0.27   35.7    76    2.1   136     3.0   808.1    0.00 
  18    9:10   0.29   37.7    70    1.8   134     4.2   808.2    0.00 
  18    9:20   0.26   39.0    66    1.3   105     3.6   808.2    0.00 
  18    9:30   0.35   39.7    65    3.3   164     6.0   808.1    0.00 
  18    9:40   0.37   41.0    62    2.4   199     3.6   808.2    0.00 
  18    9:50   0.34   42.6    57    3.1   118     4.8   808.2    0.00 
  18   10:00   0.45   43.2    55    4.9    77    11.3   808.2    0.00 
  18   10:10   0.42   44.2    51    5.9     7    14.9   808.2    0.00 
  18   10:20   0.42   42.5    54    8.6    33    17.9   808.1    0.00 
  18   10:30   0.48   43.1    52    9.4    15    17.3   808.1    0.00 
  18   10:40   0.51   43.4    51    7.3    63    17.9   808.0    0.00 
  18   10:50   0.52   44.6    49    5.9    37    16.1   807.9    0.00 
  18   11:00   0.56   44.6    48    6.9    42    16.1   807.8    0.00 
  18   11:10   0.41   44.5    48    7.3    33    17.9   807.8    0.00 
  18   11:20   0.16   42.8    50    6.2    12    11.9   807.9    0.00 
  18   11:30   0.57   43.0    51   10.1    22    19.1   807.8    0.00 
  18   11:40   0.45   42.7    52    9.6    34    16.7   807.7    0.00 
  18   11:50   0.66   43.4    51   10.3    29    18.5   807.5    0.00 
  18   12:00   0.53   43.3    50    8.5    33    20.3   807.4    0.00 
  18   12:10   0.25   42.1    53    7.2    32    17.6   807.3    0.00 
  18   12:20   0.31   42.0    54    6.1    24    13.4   807.2    0.00 
  18   12:30   0.25   41.5    55    6.3    47    14.9   807.1    0.00 
  18   12:40   0.19   41.1    55    7.0    51    11.9   806.9    0.00 
  18   12:50   0.14   40.5    55    8.2    38    16.1   806.8    0.00 
  18   13:00   0.12   40.3    55    8.1    40    13.7   806.6    0.00 
  18   13:10   0.13   40.3    55    6.8    54    14.3   806.5    0.00 
  18   13:20   0.15   40.7    54    6.1    26    13.7   806.5    0.00 
  18   13:30   0.16   40.9    55    6.8    34    13.1   806.3    0.00 
  18   13:40   0.16   40.9    55    7.5    50    14.9   806.1    0.00 
  18   13:50   0.18   41.1    55    6.9    45    14.3   806.0    0.00 
  18   14:00   0.13   41.3    54    4.9    52     9.6   805.8    0.00 
  18   14:10   0.14   41.4    54    5.1    72    11.3   805.6    0.00 
  18   14:20   0.07   41.7    53    2.3   132     4.2   805.5    0.00 
  18   14:30   0.05   41.4    54    4.8    20     9.6   805.5    0.00 
  18   14:40   0.04   40.9    56    3.4    36     6.0   805.5    0.00 
  18   14:50   0.06   40.5    58    5.2   336    10.8   805.5    0.00 
  18   15:00   0.10   40.7    57    3.2    63     6.0   805.4    0.00 
  18   15:10   0.10   41.0    55    4.1    68    11.9   805.4    0.00 
  18   15:20   0.14   41.3    54    5.5    55    13.7   805.4    0.00 
  18   15:30   0.17   41.6    52    6.2    53    12.5   805.3    0.00 
  18   15:40   0.08   41.2    52    6.1    41    12.5   805.3    0.00 
  18   15:50   0.23   41.8    51    5.0    20    17.3   805.3    0.00 
  18   16:00   0.22   42.2    50    6.6    40    14.3   805.3    0.00 
  18   16:10   0.07   41.4    49    7.6    39    18.5   805.4    0.00 
  18   16:20   0.06   40.5    51    6.1    54    17.9   805.5    0.00 
  18   16:30   0.03   40.2    50    5.4    26    11.9   805.5    0.00 
  18   16:40   0.04   39.9    49    7.9    30    12.5   805.5    0.00 
  18   16:50   0.03   39.7    48    8.4    33    16.7   805.6    0.00 
  18   17:00   0.02   39.4    48    4.8    42     9.0   805.5    0.00 
  18   17:10   0.01   38.8    50    4.6    28    15.5   805.5    0.00 
  18   17:20   0.01   38.8    49    4.9     7    12.5   805.6    0.00 
  18   17:30   0.00   38.6    50    4.2    34     7.8   805.7    0.00 
  18   17:40   0.00   38.0    52    4.4    30     8.4   805.6    0.00 
  18   17:50   0.00   36.9    55    2.2    10     4.8   805.5    0.00 
  18   18:00   0.00   36.2    58    2.3    14     4.8   805.5    0.00 
  18   18:10   0.00   36.5    56    3.9    48     6.6   805.4    0.00 
  18   18:20   0.00   36.3    57    2.7   355     4.8   805.5    0.00 
  18   18:30   0.00   35.1    61    1.6   355     3.6   805.5    0.00 
  18   18:40   0.00   33.5    68    2.5   358     4.8   805.6    0.00 
  18   18:50   0.00   32.7    70    2.5    33     4.8   805.6    0.00 
  18   19:00   0.00   31.6    74    2.7    32     4.2   805.6    0.00 
  18   19:10   0.00   30.5    78    2.7    42     4.2   805.5    0.00 
  18   19:20   0.00   29.6    80    0.8    41     3.0   805.5    0.00 
  18   19:30   0.00   29.0    82    0.8    15     2.4   805.5    0.00 
  18   19:40   0.00   28.8    83    1.8    18     3.0   805.4    0.00 
  18   19:50   0.00   28.7    83    1.1    24     3.6   805.3    0.00 
  18   20:00   0.00   29.0    82    2.3    35     4.2   805.3    0.00 
  18   20:10   0.00   28.4    84    2.0    26     4.2   805.2    0.00 
  18   20:20   0.00   28.4    83    1.3    34     3.0   805.2    0.00 
  18   20:30   0.00   28.0    84    1.5    22     3.0   805.2    0.00 
  18   20:40   0.00   27.8    85    1.4    24     3.6   805.2    0.00 
  18   20:50   0.00   27.2    87    1.9    22     3.0   805.0    0.00 
  18   21:00   0.00   27.2    88    1.8     5     4.2   805.0    0.00 
  18   21:10   0.00   27.2    88    2.6    34     4.2   805.0    0.00 
  18   21:20   0.00   27.6    87    2.9    27     4.2   805.0    0.00 
  18   21:30   0.00   28.1    86    3.9    22     6.0   804.9    0.00 
  18   21:40   0.00   27.5    87    2.1    42     4.2   804.7    0.00 
  18   21:50   0.00   27.3    87    1.5   348     3.6   804.7    0.00 
  18   22:00   0.00   27.0    88    1.6     8     4.2   804.7    0.00 
  18   22:10   0.00   26.6    89    2.2     0     5.4   804.6    0.00 
  18   22:20   0.00   26.6    90    1.9    21     4.8   804.6    0.00 
  18   22:30   0.00   26.5    89    1.3   343     3.6   804.5    0.00 
  18   22:40   0.00   25.9    91    1.0   360     2.4   804.5    0.00 
  18   22:50   0.00   25.8    92    2.1   353     3.6   804.4    0.00 
  18   23:00   0.00   25.6    92    1.8   348     4.2   804.4    0.00 
  18   23:10   0.00   25.8    92    3.6    22     5.4   804.3    0.00 
  18   23:20   0.00   25.9    92    3.0    18     4.8   804.1    0.00 
  18   23:30   0.00   26.6    89    1.6    33     3.6   804.0    0.00 
  18   23:40   0.00   25.6    90    1.7    27     5.4   804.0    0.00 
  18   23:50   0.00   26.5    90    3.2    17     5.4   803.8    0.00 
  19    0:00   0.00   28.4    81    4.0    17     7.2   803.7    0.00 
  19    0:10   0.00   30.0    74    3.9     4     6.0   803.7    0.00 
  19    0:20   0.00   30.4    72    4.3     7     6.6   803.7    0.00 
  19    0:30   0.00   30.7    70    5.1    10     7.8   803.7    0.00 
  19    0:40   0.00   30.0    72    5.5    10     7.8   803.6    0.00 
  19    0:50   0.00   29.3    74    5.4    23     7.8   803.6    0.00 
  19    1:00   0.00   29.2    74    5.4    15     9.0   803.4    0.00 
  19    1:10   0.00   28.8    76    6.2    16     9.6   803.3    0.00 
  19    1:20   0.00   28.9    75    6.3    16     9.0   803.1    0.00 
  19    1:30   0.00   29.3    74    6.4    12    10.2   803.1    0.00 
  19    1:40   0.00   29.2    74    7.0    22    10.2   803.1    0.00 
  19    1:50   0.00   29.4    73    7.0    20    10.8   803.1    0.00 
  19    2:00   0.00   29.5    72    6.3    26     8.7   803.1    0.00 
  19    2:10   0.00   29.5    72    5.3    16     8.4   803.1    0.00 
  19    2:20   0.00   29.2    72    3.9     6     6.6   803.1    0.00 
  19    2:30   0.00   28.8    74    3.3     1     5.7   803.1    0.00 
  19    2:40   0.00   29.2    73    3.8   360     6.6   803.1    0.00 
  19    2:50   0.00   29.3    73    5.0    10     9.6   803.1    0.00 
  19    3:00   0.00   29.2    73    5.2     5     9.6   803.0    0.00 
  19    3:10   0.00   29.4    73    6.2    14     9.0   802.9    0.00 
  19    3:20   0.00   29.7    71    5.4   353     8.4   802.8    0.00 

Return to Jemez Springs, Valles Caldera graphs page.


Western Regional Climate Center,wrcc@dri.edu